sensor_id;sensor_type;location;lat;lon;timestamp;pressure;altitude;pressure_sealevel;temperature;humidity
73952;BME280;62304;47.662;18.324;2023-01-25T00:01:32;101940.84;;;0.19;96.53
73952;BME280;62304;47.662;18.324;2023-01-25T00:04:35;101939.22;;;0.23;96.59
73952;BME280;62304;47.662;18.324;2023-01-25T00:07:37;101940.75;;;0.46;96.17
73952;BME280;62304;47.662;18.324;2023-01-25T00:10:40;101928.50;;;0.53;95.91
73952;BME280;62304;47.662;18.324;2023-01-25T00:13:43;101932.31;;;0.52;95.85
73952;BME280;62304;47.662;18.324;2023-01-25T00:16:46;101938.84;;;0.51;95.55
73952;BME280;62304;47.662;18.324;2023-01-25T00:19:49;101954.66;;;0.49;95.17
73952;BME280;62304;47.662;18.324;2023-01-25T00:22:52;101954.06;;;0.37;96.21
73952;BME280;62304;47.662;18.324;2023-01-25T00:25:56;101950.81;;;0.45;96.10
73952;BME280;62304;47.662;18.324;2023-01-25T00:29:01;101949.00;;;0.56;96.04
73952;BME280;62304;47.662;18.324;2023-01-25T00:32:28;101950.94;;;0.65;96.23
73952;BME280;62304;47.662;18.324;2023-01-25T00:35:34;101947.69;;;0.73;96.27
73952;BME280;62304;47.662;18.324;2023-01-25T00:38:37;101965.06;;;0.52;96.90
73952;BME280;62304;47.662;18.324;2023-01-25T00:41:40;101958.84;;;0.62;97.07
73952;BME280;62304;47.662;18.324;2023-01-25T00:44:44;101958.34;;;0.75;96.80
73952;BME280;62304;47.662;18.324;2023-01-25T00:47:48;101962.75;;;0.86;96.77
73952;BME280;62304;47.662;18.324;2023-01-25T00:50:50;101963.88;;;0.90;96.72
73952;BME280;62304;47.662;18.324;2023-01-25T00:53:54;101968.84;;;1.03;96.46
73952;BME280;62304;47.662;18.324;2023-01-25T00:56:56;101965.56;;;1.01;96.29
73952;BME280;62304;47.662;18.324;2023-01-25T01:00:00;101959.47;;;0.79;96.90
73952;BME280;62304;47.662;18.324;2023-01-25T01:03:03;101972.34;;;0.88;96.80
73952;BME280;62304;47.662;18.324;2023-01-25T01:06:11;101971.56;;;1.03;96.62
73952;BME280;62304;47.662;18.324;2023-01-25T01:09:16;101966.38;;;1.06;96.49
73952;BME280;62304;47.662;18.324;2023-01-25T01:12:19;101962.56;;;1.02;96.28
73952;BME280;62304;47.662;18.324;2023-01-25T01:15:22;101962.03;;;1.05;96.38
73952;BME280;62304;47.662;18.324;2023-01-25T01:18:25;101959.25;;;0.95;96.68
73952;BME280;62304;47.662;18.324;2023-01-25T01:21:28;101955.13;;;0.93;96.83
73952;BME280;62304;47.662;18.324;2023-01-25T01:24:31;101951.87;;;0.91;97.25
73952;BME280;62304;47.662;18.324;2023-01-25T01:27:34;101952.72;;;1.01;97.24
73952;BME280;62304;47.662;18.324;2023-01-25T01:30:38;101958.75;;;1.08;97.24
73952;BME280;62304;47.662;18.324;2023-01-25T01:33:41;101955.44;;;1.01;97.48
73952;BME280;62304;47.662;18.324;2023-01-25T01:36:45;101963.94;;;1.05;97.25
73952;BME280;62304;47.662;18.324;2023-01-25T01:39:47;101964.72;;;1.00;97.47
73952;BME280;62304;47.662;18.324;2023-01-25T01:43:02;101969.13;;;1.11;97.41
73952;BME280;62304;47.662;18.324;2023-01-25T01:49:28;101960.41;;;1.14;97.21
73952;BME280;62304;47.662;18.324;2023-01-25T01:52:35;101958.81;;;1.18;97.06
73952;BME280;62304;47.662;18.324;2023-01-25T01:55:40;101972.19;;;1.25;96.90
73952;BME280;62304;47.662;18.324;2023-01-25T01:58:43;101969.94;;;1.07;97.14
73952;BME280;62304;47.662;18.324;2023-01-25T02:01:47;101964.22;;;1.08;97.33
73952;BME280;62304;47.662;18.324;2023-01-25T02:04:52;101955.22;;;1.18;97.14
73952;BME280;62304;47.662;18.324;2023-01-25T02:07:56;101952.22;;;1.09;97.02
73952;BME280;62304;47.662;18.324;2023-01-25T02:11:02;101953.50;;;0.92;97.61
73952;BME280;62304;47.662;18.324;2023-01-25T02:14:05;101955.91;;;0.78;98.22
73952;BME280;62304;47.662;18.324;2023-01-25T02:17:09;101944.09;;;0.63;99.02
73952;BME280;62304;47.662;18.324;2023-01-25T02:20:28;101946.78;;;0.53;99.49
73952;BME280;62304;47.662;18.324;2023-01-25T02:23:38;101945.94;;;0.47;100.00
73952;BME280;62304;47.662;18.324;2023-01-25T02:26:49;101947.31;;;0.55;100.00
73952;BME280;62304;47.662;18.324;2023-01-25T02:29:52;101950.38;;;0.58;100.00
73952;BME280;62304;47.662;18.324;2023-01-25T02:32:57;101941.59;;;0.56;100.00
73952;BME280;62304;47.662;18.324;2023-01-25T02:39:12;101939.91;;;0.45;100.00
73952;BME280;62304;47.662;18.324;2023-01-25T02:42:20;101951.06;;;0.44;100.00
73952;BME280;62304;47.662;18.324;2023-01-25T02:45:27;101934.75;;;0.54;100.00
73952;BME280;62304;47.662;18.324;2023-01-25T02:48:31;101941.84;;;0.50;100.00
73952;BME280;62304;47.662;18.324;2023-01-25T02:51:37;101941.56;;;0.51;100.00
73952;BME280;62304;47.662;18.324;2023-01-25T02:54:41;101934.22;;;0.52;100.00
73952;BME280;62304;47.662;18.324;2023-01-25T02:57:44;101924.38;;;0.51;100.00
73952;BME280;62304;47.662;18.324;2023-01-25T03:00:47;101926.28;;;0.50;100.00
73952;BME280;62304;47.662;18.324;2023-01-25T03:03:51;101924.69;;;0.54;100.00
73952;BME280;62304;47.662;18.324;2023-01-25T03:06:54;101927.44;;;0.59;100.00
73952;BME280;62304;47.662;18.324;2023-01-25T03:09:58;101929.06;;;0.60;100.00
73952;BME280;62304;47.662;18.324;2023-01-25T03:13:01;101923.41;;;0.72;100.00
73952;BME280;62304;47.662;18.324;2023-01-25T03:16:06;101916.28;;;0.71;100.00
73952;BME280;62304;47.662;18.324;2023-01-25T03:19:10;101920.34;;;0.58;100.00
73952;BME280;62304;47.662;18.324;2023-01-25T03:22:13;101903.97;;;0.58;100.00
73952;BME280;62304;47.662;18.324;2023-01-25T03:25:16;101905.63;;;0.64;100.00
73952;BME280;62304;47.662;18.324;2023-01-25T03:28:22;101912.16;;;0.68;100.00
73952;BME280;62304;47.662;18.324;2023-01-25T03:31:25;101914.41;;;0.81;100.00
73952;BME280;62304;47.662;18.324;2023-01-25T03:34:29;101896.66;;;0.79;100.00
73952;BME280;62304;47.662;18.324;2023-01-25T03:37:32;101901.31;;;0.83;100.00
73952;BME280;62304;47.662;18.324;2023-01-25T03:40:35;101909.00;;;0.91;100.00
73952;BME280;62304;47.662;18.324;2023-01-25T03:43:39;101911.94;;;0.80;100.00
73952;BME280;62304;47.662;18.324;2023-01-25T03:46:42;101923.09;;;0.68;100.00
73952;BME280;62304;47.662;18.324;2023-01-25T03:49:45;101919.28;;;0.69;100.00
73952;BME280;62304;47.662;18.324;2023-01-25T03:52:48;101907.50;;;0.64;100.00
73952;BME280;62304;47.662;18.324;2023-01-25T03:59:04;101916.28;;;0.71;100.00
73952;BME280;62304;47.662;18.324;2023-01-25T04:02:08;101921.53;;;0.82;100.00
73952;BME280;62304;47.662;18.324;2023-01-25T04:05:11;101913.09;;;0.94;100.00
73952;BME280;62304;47.662;18.324;2023-01-25T04:08:15;101913.38;;;0.92;100.00
73952;BME280;62304;47.662;18.324;2023-01-25T04:11:21;101911.19;;;0.94;100.00
73952;BME280;62304;47.662;18.324;2023-01-25T04:14:24;101914.16;;;0.88;100.00
73952;BME280;62304;47.662;18.324;2023-01-25T04:17:44;101898.88;;;0.92;100.00
73952;BME280;62304;47.662;18.324;2023-01-25T04:20:55;101899.66;;;0.82;100.00
73952;BME280;62304;47.662;18.324;2023-01-25T04:23:58;101901.88;;;0.95;100.00
73952;BME280;62304;47.662;18.324;2023-01-25T04:27:03;101901.59;;;0.92;100.00
73952;BME280;62304;47.662;18.324;2023-01-25T04:30:08;101902.19;;;0.94;100.00
73952;BME280;62304;47.662;18.324;2023-01-25T04:33:11;101905.72;;;0.99;100.00
73952;BME280;62304;47.662;18.324;2023-01-25T04:36:14;101897.53;;;0.94;100.00
73952;BME280;62304;47.662;18.324;2023-01-25T04:39:18;101903.25;;;0.98;100.00
73952;BME280;62304;47.662;18.324;2023-01-25T04:42:21;101901.31;;;0.88;100.00
73952;BME280;62304;47.662;18.324;2023-01-25T04:45:25;101907.87;;;0.87;100.00
73952;BME280;62304;47.662;18.324;2023-01-25T04:48:28;101904.63;;;0.85;100.00
73952;BME280;62304;47.662;18.324;2023-01-25T04:51:32;101904.31;;;0.87;100.00
73952;BME280;62304;47.662;18.324;2023-01-25T04:54:36;101903.19;;;0.73;100.00
73952;BME280;62304;47.662;18.324;2023-01-25T04:57:40;101897.47;;;0.79;100.00
73952;BME280;62304;47.662;18.324;2023-01-25T05:00:43;101897.47;;;0.84;100.00
73952;BME280;62304;47.662;18.324;2023-01-25T05:03:46;101897.75;;;0.78;100.00
73952;BME280;62304;47.662;18.324;2023-01-25T05:06:50;101899.09;;;0.75;100.00
73952;BME280;62304;47.662;18.324;2023-01-25T05:09:53;101893.66;;;0.75;100.00
73952;BME280;62304;47.662;18.324;2023-01-25T05:12:57;101893.09;;;0.78;100.00
73952;BME280;62304;47.662;18.324;2023-01-25T05:16:00;101893.88;;;0.69;100.00
73952;BME280;62304;47.662;18.324;2023-01-25T05:19:03;101894.72;;;0.69;100.00
73952;BME280;62304;47.662;18.324;2023-01-25T05:22:06;101896.91;;;0.72;100.00
73952;BME280;62304;47.662;18.324;2023-01-25T05:25:14;101894.22;;;0.82;100.00
73952;BME280;62304;47.662;18.324;2023-01-25T05:28:36;101901.59;;;0.92;100.00
73952;BME280;62304;47.662;18.324;2023-01-25T05:31:40;101897.78;;;0.98;100.00
73952;BME280;62304;47.662;18.324;2023-01-25T05:34:44;101903.84;;;1.00;100.00
73952;BME280;62304;47.662;18.324;2023-01-25T05:37:48;101901.66;;;1.07;100.00
73952;BME280;62304;47.662;18.324;2023-01-25T05:40:51;101903.59;;;1.16;100.00
73952;BME280;62304;47.662;18.324;2023-01-25T05:43:54;101903.31;;;1.18;100.00
73952;BME280;62304;47.662;18.324;2023-01-25T05:46:57;101905.81;;;1.29;100.00
73952;BME280;62304;47.662;18.324;2023-01-25T05:50:01;101901.41;;;1.28;100.00
73952;BME280;62304;47.662;18.324;2023-01-25T05:53:05;101903.06;;;1.24;100.00
73952;BME280;62304;47.662;18.324;2023-01-25T05:56:08;101899.75;;;1.22;100.00
73952;BME280;62304;47.662;18.324;2023-01-25T05:59:12;101904.69;;;1.15;100.00
73952;BME280;62304;47.662;18.324;2023-01-25T06:02:16;101914.22;;;1.13;100.00
73952;BME280;62304;47.662;18.324;2023-01-25T06:05:19;101908.78;;;1.18;100.00
73952;BME280;62304;47.662;18.324;2023-01-25T06:08:23;101913.69;;;1.21;100.00
73952;BME280;62304;47.662;18.324;2023-01-25T06:11:27;101908.25;;;1.26;100.00
73952;BME280;62304;47.662;18.324;2023-01-25T06:14:30;101915.37;;;1.27;100.00
73952;BME280;62304;47.662;18.324;2023-01-25T06:17:35;101916.75;;;1.29;100.00
73952;BME280;62304;47.662;18.324;2023-01-25T06:20:37;101914.53;;;1.21;100.00
73952;BME280;62304;47.662;18.324;2023-01-25T06:23:41;101909.91;;;1.22;100.00
73952;BME280;62304;47.662;18.324;2023-01-25T06:26:46;101925.72;;;1.20;100.00
73952;BME280;62304;47.662;18.324;2023-01-25T06:29:49;101929.81;;;1.07;100.00
73952;BME280;62304;47.662;18.324;2023-01-25T06:32:52;101927.06;;;1.07;100.00
73952;BME280;62304;47.662;18.324;2023-01-25T06:35:59;101931.44;;;1.03;100.00
73952;BME280;62304;47.662;18.324;2023-01-25T06:39:02;101928.69;;;1.03;100.00
73952;BME280;62304;47.662;18.324;2023-01-25T06:42:06;101927.34;;;1.11;100.00
73952;BME280;62304;47.662;18.324;2023-01-25T06:45:09;101935.00;;;1.14;100.00
73952;BME280;62304;47.662;18.324;2023-01-25T06:48:13;101948.91;;;1.12;100.00
73952;BME280;62304;47.662;18.324;2023-01-25T06:51:16;101936.34;;;1.06;100.00
73952;BME280;62304;47.662;18.324;2023-01-25T06:54:19;101944.78;;;0.95;100.00
73952;BME280;62304;47.662;18.324;2023-01-25T06:57:22;101935.22;;;0.97;100.00
73952;BME280;62304;47.662;18.324;2023-01-25T07:00:25;101934.69;;;1.00;100.00
73952;BME280;62304;47.662;18.324;2023-01-25T07:03:29;101940.16;;;1.00;100.00
73952;BME280;62304;47.662;18.324;2023-01-25T07:06:32;101931.16;;;1.00;100.00
73952;BME280;62304;47.662;18.324;2023-01-25T07:09:38;101932.97;;;0.84;100.00
73952;BME280;62304;47.662;18.324;2023-01-25T07:12:41;101936.28;;;0.86;100.00
73952;BME280;62304;47.662;18.324;2023-01-25T07:15:43;101937.94;;;0.92;100.00
73952;BME280;62304;47.662;18.324;2023-01-25T07:18:47;101936.31;;;0.91;100.00
73952;BME280;62304;47.662;18.324;2023-01-25T07:21:49;101934.63;;;0.80;100.00
73952;BME280;62304;47.662;18.324;2023-01-25T07:24:52;101932.97;;;0.79;100.00
73952;BME280;62304;47.662;18.324;2023-01-25T07:27:59;101931.09;;;0.85;100.00
73952;BME280;62304;47.662;18.324;2023-01-25T07:31:06;101934.94;;;0.89;100.00
73952;BME280;62304;47.662;18.324;2023-01-25T07:34:10;101940.38;;;0.84;100.00
73952;BME280;62304;47.662;18.324;2023-01-25T07:37:14;101929.69;;;0.77;100.00
73952;BME280;62304;47.662;18.324;2023-01-25T07:40:17;101938.97;;;0.76;100.00
73952;BME280;62304;47.662;18.324;2023-01-25T07:43:21;101939.78;;;0.77;100.00
73952;BME280;62304;47.662;18.324;2023-01-25T07:46:24;101935.19;;;0.82;100.00
73952;BME280;62304;47.662;18.324;2023-01-25T07:49:27;101938.47;;;0.89;100.00
73952;BME280;62304;47.662;18.324;2023-01-25T07:52:30;101931.94;;;0.95;100.00
73952;BME280;62304;47.662;18.324;2023-01-25T07:55:33;101930.06;;;1.01;100.00
73952;BME280;62304;47.662;18.324;2023-01-25T07:58:37;101938.50;;;0.99;100.00
73952;BME280;62304;47.662;18.324;2023-01-25T08:01:41;101935.75;;;0.94;100.00
73952;BME280;62304;47.662;18.324;2023-01-25T08:04:44;101929.78;;;0.97;100.00
73952;BME280;62304;47.662;18.324;2023-01-25T08:07:47;101930.84;;;0.91;100.00
73952;BME280;62304;47.662;18.324;2023-01-25T08:10:50;101921.56;;;0.92;100.00
73952;BME280;62304;47.662;18.324;2023-01-25T08:13:54;101919.09;;;0.96;100.00
73952;BME280;62304;47.662;18.324;2023-01-25T08:16:57;101919.94;;;1.01;100.00
73952;BME280;62304;47.662;18.324;2023-01-25T08:20:00;101920.50;;;1.03;100.00
73952;BME280;62304;47.662;18.324;2023-01-25T08:23:03;101921.63;;;1.07;100.00
73952;BME280;62304;47.662;18.324;2023-01-25T08:26:08;101920.25;;;1.15;100.00
73952;BME280;62304;47.662;18.324;2023-01-25T08:29:11;101924.34;;;1.17;100.00
73952;BME280;62304;47.662;18.324;2023-01-25T08:32:15;101917.53;;;1.20;100.00
73952;BME280;62304;47.662;18.324;2023-01-25T08:35:18;101915.63;;;1.25;100.00
73952;BME280;62304;47.662;18.324;2023-01-25T08:38:21;101918.66;;;1.34;100.00
73952;BME280;62304;47.662;18.324;2023-01-25T08:41:26;101921.13;;;1.40;100.00
73952;BME280;62304;47.662;18.324;2023-01-25T08:44:30;101921.41;;;1.39;100.00
73952;BME280;62304;47.662;18.324;2023-01-25T08:47:33;101915.94;;;1.39;100.00
73952;BME280;62304;47.662;18.324;2023-01-25T08:50:36;101909.62;;;1.38;100.00
73952;BME280;62304;47.662;18.324;2023-01-25T08:53:40;101902.53;;;1.47;100.00
73952;BME280;62304;47.662;18.324;2023-01-25T08:56:42;101903.34;;;1.53;100.00
73952;BME280;62304;47.662;18.324;2023-01-25T08:59:46;101910.47;;;1.59;100.00
73952;BME280;62304;47.662;18.324;2023-01-25T09:02:49;101905.56;;;1.61;100.00
73952;BME280;62304;47.662;18.324;2023-01-25T09:05:53;101901.44;;;1.48;100.00
73952;BME280;62304;47.662;18.324;2023-01-25T09:08:57;101903.63;;;1.66;100.00
73952;BME280;62304;47.662;18.324;2023-01-25T09:12:01;101896.25;;;1.67;100.00
73952;BME280;62304;47.662;18.324;2023-01-25T09:15:04;101895.69;;;1.70;100.00
73952;BME280;62304;47.662;18.324;2023-01-25T09:18:07;101894.34;;;1.62;100.00
73952;BME280;62304;47.662;18.324;2023-01-25T09:21:13;101900.38;;;1.64;100.00
73952;BME280;62304;47.662;18.324;2023-01-25T09:24:16;101898.44;;;1.55;100.00
73952;BME280;62304;47.662;18.324;2023-01-25T09:27:19;101901.72;;;1.62;100.00
73952;BME280;62304;47.662;18.324;2023-01-25T09:30:22;101898.16;;;1.66;100.00
73952;BME280;62304;47.662;18.324;2023-01-25T09:33:43;101887.75;;;1.83;100.00
73952;BME280;62304;47.662;18.324;2023-01-25T09:36:46;101887.50;;;1.90;99.80
73952;BME280;62304;47.662;18.324;2023-01-25T09:39:49;101880.66;;;1.97;99.56
73952;BME280;62304;47.662;18.324;2023-01-25T09:43:09;101883.59;;;2.26;99.36
73952;BME280;62304;47.662;18.324;2023-01-25T09:46:38;101880.03;;;2.30;98.04
73952;BME280;62304;47.662;18.324;2023-01-25T09:53:36;101868.50;;;2.33;96.15
73952;BME280;62304;47.662;18.324;2023-01-25T09:56:41;101871.06;;;1.95;96.44
73952;BME280;62304;47.662;18.324;2023-01-25T09:59:46;101867.75;;;2.13;96.93
73952;BME280;62304;47.662;18.324;2023-01-25T10:06:36;101850.50;;;2.17;96.31
73952;BME280;62304;47.662;18.324;2023-01-25T10:09:59;101846.56;;;2.38;96.35
73952;BME280;62304;47.662;18.324;2023-01-25T10:13:14;101837.75;;;2.56;95.85
73952;BME280;62304;47.662;18.324;2023-01-25T10:19:47;101838.75;;;2.75;95.26
73952;BME280;62304;47.662;18.324;2023-01-25T10:23:26;101840.97;;;2.73;94.79
73952;BME280;62304;47.662;18.324;2023-01-25T10:26:37;101842.63;;;2.64;94.81
73952;BME280;62304;47.662;18.324;2023-01-25T10:29:45;101827.75;;;2.85;94.95
73952;BME280;62304;47.662;18.324;2023-01-25T10:32:51;101822.09;;;3.05;94.92
73952;BME280;62304;47.662;18.324;2023-01-25T10:36:00;101824.31;;;3.03;93.95
73952;BME280;62304;47.662;18.324;2023-01-25T10:39:04;101817.63;;;2.81;93.62
73952;BME280;62304;47.662;18.324;2023-01-25T10:42:11;101818.66;;;2.90;94.51
73952;BME280;62304;47.662;18.324;2023-01-25T10:45:17;101808.16;;;2.58;93.84
73952;BME280;62304;47.662;18.324;2023-01-25T10:48:23;101799.50;;;2.36;93.81
73952;BME280;62304;47.662;18.324;2023-01-25T10:51:32;101798.81;;;2.64;94.18
73952;BME280;62304;47.662;18.324;2023-01-25T10:54:37;101788.78;;;2.88;94.44
73952;BME280;62304;47.662;18.324;2023-01-25T10:57:48;101789.22;;;3.05;93.61
73952;BME280;62304;47.662;18.324;2023-01-25T11:00:52;101782.72;;;2.96;92.79
73952;BME280;62304;47.662;18.324;2023-01-25T11:03:57;101781.81;;;3.06;92.57
73952;BME280;62304;47.662;18.324;2023-01-25T11:07:02;101773.84;;;3.09;92.07
73952;BME280;62304;47.662;18.324;2023-01-25T11:10:33;101767.22;;;3.15;93.24
73952;BME280;62304;47.662;18.324;2023-01-25T11:13:39;101768.84;;;3.16;93.03
73952;BME280;62304;47.662;18.324;2023-01-25T11:16:45;101760.72;;;3.06;93.04
73952;BME280;62304;47.662;18.324;2023-01-25T11:20:17;101757.97;;;3.11;92.73
73952;BME280;62304;47.662;18.324;2023-01-25T11:23:23;101756.22;;;3.20;92.68
73952;BME280;62304;47.662;18.324;2023-01-25T11:26:27;101752.31;;;3.26;92.67
73952;BME280;62304;47.662;18.324;2023-01-25T11:29:30;101743.19;;;3.07;92.34
73952;BME280;62304;47.662;18.324;2023-01-25T11:32:33;101743.66;;;3.14;92.55
73952;BME280;62304;47.662;18.324;2023-01-25T11:35:43;101735.59;;;3.28;92.83
73952;BME280;62304;47.662;18.324;2023-01-25T11:46:14;101713.41;;;3.24;91.65
73952;BME280;62304;47.662;18.324;2023-01-25T11:56:07;101692.44;;;3.38;91.78
73952;BME280;62304;47.662;18.324;2023-01-25T12:29:41;101637.13;;;3.55;90.38
73952;BME280;62304;47.662;18.324;2023-01-25T12:32:40;101631.31;;;3.61;90.37
73952;BME280;62304;47.662;18.324;2023-01-25T12:39:57;101627.78;;;3.56;89.89
73952;BME280;62304;47.662;18.324;2023-01-25T12:43:02;101623.75;;;3.48;90.10
73952;BME280;62304;47.662;18.324;2023-01-25T12:46:25;101627.56;;;3.52;90.23
73952;BME280;62304;47.662;18.324;2023-01-25T12:49:36;101629.59;;;3.65;90.04
73952;BME280;62304;47.662;18.324;2023-01-25T12:52:50;101627.50;;;3.57;89.80
73952;BME280;62304;47.662;18.324;2023-01-25T12:55:56;101617.09;;;3.54;89.48
73952;BME280;62304;47.662;18.324;2023-01-25T12:59:15;101614.34;;;3.78;89.74
73952;BME280;62304;47.662;18.324;2023-01-25T13:09:32;101599.50;;;3.79;89.56
73952;BME280;62304;47.662;18.324;2023-01-25T13:12:55;101597.31;;;3.81;89.72
73952;BME280;62304;47.662;18.324;2023-01-25T13:16:39;101589.28;;;3.84;89.44
73952;BME280;62304;47.662;18.324;2023-01-25T13:19:43;101590.63;;;3.87;90.08
73952;BME280;62304;47.662;18.324;2023-01-25T13:25:48;101582.31;;;3.73;89.98
73952;BME280;62304;47.662;18.324;2023-01-25T13:28:53;101575.09;;;3.59;90.22
73952;BME280;62304;47.662;18.324;2023-01-25T13:31:57;101578.53;;;3.46;90.94
73952;BME280;62304;47.662;18.324;2023-01-25T13:35:01;101579.31;;;3.51;90.56
73952;BME280;62304;47.662;18.324;2023-01-25T13:41:26;101575.44;;;3.52;90.88
73952;BME280;62304;47.662;18.324;2023-01-25T13:44:31;101576.03;;;3.49;90.37
73952;BME280;62304;47.662;18.324;2023-01-25T13:47:36;101578.84;;;3.44;91.20
73952;BME280;62304;47.662;18.324;2023-01-25T13:50:55;101575.78;;;3.46;91.28
73952;BME280;62304;47.662;18.324;2023-01-25T13:54:00;101574.78;;;3.42;91.31
73952;BME280;62304;47.662;18.324;2023-01-25T13:57:05;101575.56;;;3.42;91.38
73952;BME280;62304;47.662;18.324;2023-01-25T14:00:14;101565.94;;;3.45;91.60
73952;BME280;62304;47.662;18.324;2023-01-25T14:03:24;101571.97;;;3.47;91.53
73952;BME280;62304;47.662;18.324;2023-01-25T14:06:31;101574.78;;;3.42;91.38
73952;BME280;62304;47.662;18.324;2023-01-25T14:09:35;101577.34;;;3.33;91.58
73952;BME280;62304;47.662;18.324;2023-01-25T14:12:40;101576.53;;;3.33;92.10
73952;BME280;62304;47.662;18.324;2023-01-25T14:18:57;101569.25;;;3.23;92.22
73952;BME280;62304;47.662;18.324;2023-01-25T14:25:29;101566.47;;;3.00;93.49
73952;BME280;62304;47.662;18.324;2023-01-25T14:28:33;101568.44;;;2.94;93.65
73952;BME280;62304;47.662;18.324;2023-01-25T14:31:36;101561.50;;;3.02;93.63
73952;BME280;62304;47.662;18.324;2023-01-25T14:34:40;101560.78;;;2.96;93.38
73952;BME280;62304;47.662;18.324;2023-01-25T14:37:43;101563.56;;;2.91;93.90
73952;BME280;62304;47.662;18.324;2023-01-25T14:40:47;101557.25;;;2.91;94.27
73952;BME280;62304;47.662;18.324;2023-01-25T14:43:53;101552.31;;;2.93;94.43
73952;BME280;62304;47.662;18.324;2023-01-25T14:47:27;101544.91;;;2.93;94.13
73952;BME280;62304;47.662;18.324;2023-01-25T14:53:43;101544.19;;;2.83;94.78
73952;BME280;62304;47.662;18.324;2023-01-25T14:56:50;101549.63;;;2.88;94.43
73952;BME280;62304;47.662;18.324;2023-01-25T14:59:55;101546.88;;;2.88;94.46
73952;BME280;62304;47.662;18.324;2023-01-25T15:02:59;101552.41;;;2.83;94.46
73952;BME280;62304;47.662;18.324;2023-01-25T15:06:03;101547.22;;;2.81;94.70
73952;BME280;62304;47.662;18.324;2023-01-25T15:12:33;101536.44;;;2.90;95.23
73952;BME280;62304;47.662;18.324;2023-01-25T15:15:35;101524.97;;;2.88;95.04
73952;BME280;62304;47.662;18.324;2023-01-25T15:21:42;101524.94;;;2.64;95.49
73952;BME280;62304;47.662;18.324;2023-01-25T15:24:46;101527.16;;;2.62;95.62
73952;BME280;62304;47.662;18.324;2023-01-25T15:27:59;101520.56;;;2.63;95.65
73952;BME280;62304;47.662;18.324;2023-01-25T15:31:03;101523.31;;;2.63;95.83
73952;BME280;62304;47.662;18.324;2023-01-25T15:34:14;101530.47;;;2.59;95.91
73952;BME280;62304;47.662;18.324;2023-01-25T15:37:18;101536.47;;;2.61;95.93
73952;BME280;62304;47.662;18.324;2023-01-25T15:40:20;101536.16;;;2.63;95.86
73952;BME280;62304;47.662;18.324;2023-01-25T15:43:24;101530.97;;;2.61;95.68
73952;BME280;62304;47.662;18.324;2023-01-25T15:46:29;101537.63;;;2.55;96.30
73952;BME280;62304;47.662;18.324;2023-01-25T15:49:35;101534.94;;;2.50;96.42
73952;BME280;62304;47.662;18.324;2023-01-25T15:52:40;101534.31;;;2.58;96.26
73952;BME280;62304;47.662;18.324;2023-01-25T15:55:45;101528.59;;;2.55;96.20
73952;BME280;62304;47.662;18.324;2023-01-25T15:58:51;101535.37;;;2.62;96.02
73952;BME280;62304;47.662;18.324;2023-01-25T16:01:55;101534.22;;;2.68;95.76
73952;BME280;62304;47.662;18.324;2023-01-25T16:04:58;101537.44;;;2.75;95.71
73952;BME280;62304;47.662;18.324;2023-01-25T16:08:02;101531.53;;;2.63;96.01
73952;BME280;62304;47.662;18.324;2023-01-25T16:11:05;101527.22;;;2.57;96.17
73952;BME280;62304;47.662;18.324;2023-01-25T16:14:09;101536.81;;;2.55;96.39
73952;BME280;62304;47.662;18.324;2023-01-25T16:17:17;101534.78;;;2.65;96.30
73952;BME280;62304;47.662;18.324;2023-01-25T16:20:21;101536.41;;;2.66;96.12
73952;BME280;62304;47.662;18.324;2023-01-25T16:23:24;101527.16;;;2.62;96.00
73952;BME280;62304;47.662;18.324;2023-01-25T16:26:28;101525.56;;;2.56;96.27
73952;BME280;62304;47.662;18.324;2023-01-25T16:29:32;101514.84;;;2.60;96.34
73952;BME280;62304;47.662;18.324;2023-01-25T16:32:36;101514.44;;;2.71;95.86
73952;BME280;62304;47.662;18.324;2023-01-25T16:35:40;101511.28;;;2.59;95.88
73952;BME280;62304;47.662;18.324;2023-01-25T16:38:44;101515.03;;;2.68;96.24
73952;BME280;62304;47.662;18.324;2023-01-25T16:41:48;101517.78;;;2.68;95.99
73952;BME280;62304;47.662;18.324;2023-01-25T16:44:53;101517.19;;;2.71;95.93
73952;BME280;62304;47.662;18.324;2023-01-25T16:47:57;101507.69;;;2.64;96.19
73952;BME280;62304;47.662;18.324;2023-01-25T16:51:00;101516.16;;;2.67;96.14
73952;BME280;62304;47.662;18.324;2023-01-25T16:54:04;101516.06;;;2.72;95.83
73952;BME280;62304;47.662;18.324;2023-01-25T16:57:09;101517.12;;;2.76;95.80
73952;BME280;62304;47.662;18.324;2023-01-25T17:00:22;101513.00;;;2.79;95.37
73952;BME280;62304;47.662;18.324;2023-01-25T17:03:27;101511.19;;;2.69;95.27
73952;BME280;62304;47.662;18.324;2023-01-25T17:06:32;101500.34;;;2.59;95.73
73952;BME280;62304;47.662;18.324;2023-01-25T17:09:35;101501.97;;;2.60;96.13
73952;BME280;62304;47.662;18.324;2023-01-25T17:12:40;101506.06;;;2.63;96.41
73952;BME280;62304;47.662;18.324;2023-01-25T17:15:45;101499.66;;;2.72;96.25
73952;BME280;62304;47.662;18.324;2023-01-25T17:18:58;101497.78;;;2.68;95.95
73952;BME280;62304;47.662;18.324;2023-01-25T17:22:02;101500.97;;;2.75;95.87
73952;BME280;62304;47.662;18.324;2023-01-25T17:25:07;101496.03;;;2.53;96.26
73952;BME280;62304;47.662;18.324;2023-01-25T17:28:13;101497.13;;;2.52;96.24
73952;BME280;62304;47.662;18.324;2023-01-25T17:31:23;101491.94;;;2.51;96.45
73952;BME280;62304;47.662;18.324;2023-01-25T17:34:28;101489.28;;;2.41;96.85
73952;BME280;62304;47.662;18.324;2023-01-25T17:37:32;101485.72;;;2.69;96.50
73952;BME280;62304;47.662;18.324;2023-01-25T17:40:36;101487.47;;;2.60;96.65
73952;BME280;62304;47.662;18.324;2023-01-25T17:43:41;101480.19;;;2.50;96.41